createdAt,value
2022-10-28T00:00:18.256Z,19.07
2022-10-28T00:02:51.372Z,19.17
2022-10-28T00:05:18.178Z,19.35
2022-10-28T00:07:44.832Z,19.17
2022-10-28T00:10:13.380Z,19.19
2022-10-28T00:12:40.090Z,18.85
2022-10-28T00:15:07.126Z,18.74
2022-10-28T00:17:33.719Z,18.75
2022-10-28T00:20:00.291Z,18.77
2022-10-28T00:22:28.877Z,18.85
2022-10-28T00:24:55.587Z,18.88
2022-10-28T00:27:25.267Z,18.85
2022-10-28T00:29:55.133Z,18.91
2022-10-28T00:32:21.720Z,18.95
2022-10-28T00:34:48.710Z,18.92
2022-10-28T00:37:17.634Z,18.98
2022-10-28T00:39:44.181Z,18.90
2022-10-28T00:42:11.279Z,18.94
2022-10-28T00:44:50.137Z,19.01
2022-10-28T00:47:29.154Z,18.91
2022-10-28T00:50:14.806Z,18.96
2022-10-28T00:52:41.835Z,18.95
2022-10-28T00:55:08.861Z,18.85
2022-10-28T00:57:37.235Z,18.84
2022-10-28T01:00:07.022Z,19.03
2022-10-28T01:02:40.937Z,19.07
2022-10-28T01:05:08.192Z,19.11
2022-10-28T01:07:34.987Z,19.32
2022-10-28T01:10:01.762Z,19.38
2022-10-28T01:12:56.253Z,19.52
2022-10-28T01:15:38.229Z,19.35
2022-10-28T01:18:37.181Z,19.05
2022-10-28T01:21:37.185Z,19.16
2022-10-28T01:24:20.264Z,19.09
2022-10-28T01:26:52.889Z,19.25
2022-10-28T01:29:32.147Z,19.17
2022-10-28T01:32:07.975Z,19.04
2022-10-28T01:35:24.724Z,19.06
2022-10-28T01:38:17.935Z,19.03
2022-10-28T01:41:08.414Z,19.09
2022-10-28T01:43:55.782Z,19.19
2022-10-28T01:46:30.888Z,19.16
2022-10-28T01:49:01.206Z,19.13
2022-10-28T01:51:35.438Z,19.20
2022-10-28T01:54:04.045Z,19.06
2022-10-28T01:56:33.600Z,19.05
2022-10-28T01:59:01.327Z,19.12
2022-10-28T02:01:29.687Z,19.16
2022-10-28T02:03:56.800Z,19.17
2022-10-28T02:06:26.542Z,19.14
2022-10-28T02:09:12.011Z,19.12
2022-10-28T02:11:38.492Z,19.11
2022-10-28T02:14:33.080Z,19.03
2022-10-28T02:17:02.653Z,19.08
2022-10-28T02:19:43.538Z,18.96
2022-10-28T02:22:16.324Z,19.08
2022-10-28T02:25:01.581Z,19.19
2022-10-28T02:27:36.615Z,19.22
2022-10-28T02:30:22.059Z,19.22
2022-10-28T02:32:58.804Z,19.20
2022-10-28T02:35:50.711Z,19.09
2022-10-28T02:38:21.330Z,18.95
2022-10-28T02:43:25.012Z,19.04
2022-10-28T02:45:55.511Z,18.90
2022-10-28T02:48:28.530Z,18.99
2022-10-28T02:50:59.221Z,19.05
2022-10-28T02:53:46.353Z,18.95
2022-10-28T02:56:13.826Z,18.91
2022-10-28T02:58:41.018Z,18.92
2022-10-28T03:01:08.058Z,18.91
2022-10-28T03:03:37.682Z,19.02
2022-10-28T03:06:04.534Z,18.91
2022-10-28T03:08:32.673Z,18.92
2022-10-28T03:10:59.226Z,18.73
2022-10-28T03:13:26.249Z,18.78
2022-10-28T03:15:52.921Z,18.71
2022-10-28T03:18:19.613Z,18.73
2022-10-28T03:20:47.150Z,18.77
2022-10-28T03:23:13.822Z,18.79
2022-10-28T03:25:40.464Z,18.73
2022-10-28T03:28:07.094Z,18.83
2022-10-28T03:30:33.649Z,18.72
2022-10-28T03:33:00.182Z,18.58
2022-10-28T03:39:18.729Z,18.50
2022-10-28T03:41:45.753Z,18.51
2022-10-28T03:44:12.321Z,18.45
2022-10-28T03:46:39.121Z,18.65
2022-10-28T03:49:05.787Z,18.62
2022-10-28T03:51:32.372Z,18.58
2022-10-28T03:53:59.008Z,18.72
2022-10-28T03:56:25.604Z,18.74
2022-10-28T04:01:23.803Z,18.77
2022-10-28T04:03:50.455Z,18.67
2022-10-28T04:06:17.189Z,18.68
2022-10-28T04:08:43.736Z,18.88
2022-10-28T04:11:10.400Z,18.84
2022-10-28T04:13:37.003Z,18.87
2022-10-28T04:16:03.816Z,18.91
2022-10-28T04:18:30.410Z,19.00
2022-10-28T04:20:57.055Z,19.02
2022-10-28T04:23:23.604Z,18.84
2022-10-28T04:25:54.177Z,18.85
2022-10-28T04:28:22.233Z,18.95
2022-10-28T04:31:01.795Z,18.82
2022-10-28T04:33:29.691Z,18.69
2022-10-28T04:35:56.336Z,18.75
2022-10-28T04:40:55.506Z,18.69
2022-10-28T04:43:22.157Z,18.92
2022-10-28T04:45:48.724Z,18.80
2022-10-28T04:48:15.471Z,18.83
2022-10-28T04:50:42.300Z,18.87
2022-10-28T04:53:12.536Z,19.02
2022-10-28T04:55:39.417Z,18.86
2022-10-28T04:58:06.281Z,18.94
2022-10-28T05:00:36.088Z,18.95
2022-10-28T05:03:03.312Z,18.84
2022-10-28T05:05:30.005Z,18.88
2022-10-28T05:07:56.944Z,19.16
2022-10-28T05:10:23.825Z,18.99
2022-10-28T05:12:50.570Z,18.81
2022-10-28T05:15:17.236Z,18.64
2022-10-28T05:17:45.228Z,18.55
2022-10-28T05:20:12.711Z,18.57
2022-10-28T05:22:47.163Z,18.54
2022-10-28T05:25:14.125Z,18.49
2022-10-28T05:27:40.719Z,18.55
2022-10-28T05:30:08.182Z,18.55
2022-10-28T05:32:35.000Z,18.56
2022-10-28T05:35:01.686Z,18.60
2022-10-28T05:37:28.313Z,18.54
2022-10-28T05:39:56.457Z,18.58
2022-10-28T05:42:23.168Z,18.57
2022-10-28T05:44:49.911Z,18.63
2022-10-28T05:47:17.554Z,18.64
2022-10-28T05:49:44.504Z,18.63
2022-10-28T05:52:13.554Z,18.66
2022-10-28T05:54:40.206Z,18.71
2022-10-28T05:57:09.602Z,18.75
2022-10-28T05:59:36.237Z,18.65
2022-10-28T06:02:03.317Z,18.92
2022-10-28T06:04:31.090Z,19.13
2022-10-28T06:06:57.859Z,18.87
2022-10-28T06:09:27.461Z,19.08
2022-10-28T06:11:52.563Z,19.28
2022-10-28T06:14:19.186Z,19.03
2022-10-28T06:16:45.847Z,19.01
2022-10-28T06:19:12.551Z,19.09
2022-10-28T06:21:39.240Z,18.97
2022-10-28T06:24:11.225Z,18.92
2022-10-28T06:26:39.499Z,18.91
2022-10-28T06:29:09.404Z,19.02
2022-10-28T06:31:40.856Z,19.20
2022-10-28T06:34:08.446Z,19.19
2022-10-28T06:36:35.177Z,18.85
2022-10-28T06:39:01.926Z,18.98
2022-10-28T06:41:29.041Z,18.67
2022-10-28T06:43:55.672Z,18.65
2022-10-28T06:46:22.325Z,18.61
2022-10-28T06:48:50.591Z,18.67
2022-10-28T06:51:17.266Z,18.69
2022-10-28T06:53:43.961Z,18.82
2022-10-28T06:56:10.867Z,18.87
2022-10-28T06:58:37.539Z,18.86
2022-10-28T07:01:05.637Z,18.78
2022-10-28T07:03:35.044Z,18.97
2022-10-28T07:06:01.940Z,18.90
2022-10-28T07:08:29.156Z,18.95
2022-10-28T07:10:57.191Z,18.91
2022-10-28T07:13:24.659Z,18.94
2022-10-28T07:15:56.068Z,19.11
2022-10-28T07:18:23.820Z,19.22
2022-10-28T07:20:51.288Z,19.20
2022-10-28T07:23:18.357Z,19.36
2022-10-28T07:28:18.980Z,19.55
2022-10-28T07:30:45.844Z,19.52
2022-10-28T07:33:12.554Z,19.66
2022-10-28T07:35:39.356Z,19.55
2022-10-28T07:38:05.952Z,19.62
2022-10-28T07:40:32.699Z,19.68
2022-10-28T07:42:59.596Z,19.44
2022-10-28T07:45:26.388Z,19.41
2022-10-28T07:47:59.235Z,19.47
2022-10-28T07:50:25.974Z,19.41
2022-10-28T07:52:53.045Z,19.47
2022-10-28T07:55:21.536Z,19.43
2022-10-28T07:57:48.577Z,19.48
2022-10-28T08:00:19.031Z,19.56
2022-10-28T08:02:45.669Z,19.61
2022-10-28T08:05:12.410Z,19.67
2022-10-28T08:07:39.203Z,19.66
2022-10-28T08:10:06.412Z,19.61
2022-10-28T08:12:33.093Z,19.75
2022-10-28T08:15:02.922Z,19.75
2022-10-28T08:17:29.908Z,19.72
2022-10-28T08:19:56.653Z,19.74
2022-10-28T08:22:23.483Z,19.66
2022-10-28T08:24:50.132Z,19.76
2022-10-28T08:27:16.770Z,19.84
2022-10-28T08:29:43.465Z,20.00
2022-10-28T08:32:10.108Z,20.02
2022-10-28T08:34:39.373Z,20.01
2022-10-28T08:37:09.326Z,20.03
2022-10-28T08:39:36.024Z,20.06
2022-10-28T08:42:17.574Z,19.92
2022-10-28T08:45:22.500Z,20.02
2022-10-28T08:48:07.548Z,20.11
2022-10-28T08:50:44.723Z,20.19
2022-10-28T08:53:26.776Z,20.25
2022-10-28T08:55:57.212Z,20.38
2022-10-28T08:58:26.395Z,20.28
2022-10-28T09:00:57.662Z,20.58
2022-10-28T09:03:26.153Z,20.64
2022-10-28T09:06:06.362Z,20.58
2022-10-28T09:08:40.874Z,20.88
2022-10-28T09:11:10.525Z,21.05
2022-10-28T09:14:30.843Z,21.13
2022-10-28T09:17:00.826Z,21.29
2022-10-28T09:19:39.656Z,21.31
2022-10-28T09:22:12.324Z,21.47
2022-10-28T09:25:05.782Z,21.40
2022-10-28T09:28:03.944Z,21.73
2022-10-28T09:30:59.663Z,21.89
2022-10-28T09:33:35.513Z,22.10
2022-10-28T09:36:07.961Z,21.51
2022-10-28T09:38:37.409Z,21.63
2022-10-28T09:41:28.650Z,21.55
2022-10-28T09:44:25.726Z,21.73
2022-10-28T09:46:57.494Z,21.66
2022-10-28T09:49:27.858Z,21.67
2022-10-28T09:52:19.030Z,21.67
2022-10-28T09:54:52.245Z,21.78
2022-10-28T09:57:34.243Z,21.78
2022-10-28T10:02:45.625Z,22.04
2022-10-28T10:05:18.968Z,21.91
2022-10-28T10:07:55.056Z,21.81
2022-10-28T10:10:45.104Z,21.84
2022-10-28T10:13:13.506Z,21.84
2022-10-28T10:15:44.963Z,21.85
2022-10-28T10:18:19.099Z,22.15
2022-10-28T10:20:53.446Z,22.07
2022-10-28T10:23:23.187Z,22.13
2022-10-28T10:26:14.288Z,22.38
2022-10-28T10:28:45.394Z,22.13
2022-10-28T10:31:20.917Z,22.11
2022-10-28T10:33:58.433Z,22.29
2022-10-28T10:36:31.468Z,22.42
2022-10-28T10:39:04.749Z,22.53
2022-10-28T10:41:43.307Z,22.33
2022-10-28T10:44:22.575Z,22.38
2022-10-28T10:47:05.953Z,22.48
2022-10-28T10:49:34.701Z,22.66
2022-10-28T10:52:10.323Z,22.58
2022-10-28T10:54:38.420Z,22.68
2022-10-28T10:57:17.986Z,22.65
2022-10-28T10:59:49.651Z,22.84
2022-10-28T11:02:39.802Z,23.00
2022-10-28T11:05:09.171Z,23.09
2022-10-28T11:07:36.954Z,23.07
2022-10-28T11:10:04.167Z,23.07
2022-10-28T11:12:32.257Z,22.78
2022-10-28T11:15:03.251Z,22.78
2022-10-28T11:17:34.671Z,22.98
2022-10-28T11:20:22.992Z,22.89
2022-10-28T11:23:00.482Z,22.87
2022-10-28T11:25:36.972Z,22.92
2022-10-28T11:28:04.548Z,23.07
2022-10-28T11:30:46.856Z,22.99
2022-10-28T11:33:42.660Z,22.88
2022-10-28T11:36:09.344Z,22.74
2022-10-28T11:38:57.418Z,22.97
2022-10-28T11:41:45.799Z,22.99
2022-10-28T11:44:31.708Z,23.11
2022-10-28T11:47:05.441Z,23.09
2022-10-28T11:50:07.150Z,23.13
2022-10-28T11:52:51.683Z,22.92
2022-10-28T11:55:42.947Z,22.55
2022-10-28T11:58:33.298Z,22.63
2022-10-28T12:01:06.819Z,22.91
2022-10-28T12:03:54.080Z,22.92
2022-10-28T12:06:20.690Z,22.80
2022-10-28T12:09:02.835Z,22.90
2022-10-28T12:11:36.658Z,22.79
2022-10-28T12:14:46.111Z,22.94
2022-10-28T12:17:27.835Z,22.79
2022-10-28T12:20:01.377Z,22.75
2022-10-28T12:22:29.621Z,22.86
2022-10-28T12:24:58.370Z,22.96
2022-10-28T12:27:30.067Z,22.84
2022-10-28T12:30:02.363Z,22.84
2022-10-28T12:32:31.866Z,22.67
2022-10-28T12:35:26.407Z,22.82
2022-10-28T12:38:28.755Z,22.83
2022-10-28T12:41:30.436Z,22.79
2022-10-28T12:43:57.139Z,22.88
2022-10-28T12:46:47.188Z,22.94
2022-10-28T12:49:22.027Z,22.84
2022-10-28T12:55:08.302Z,22.96
2022-10-28T12:57:35.411Z,22.90
2022-10-28T13:00:07.072Z,22.90
2022-10-28T13:02:45.504Z,22.93
2022-10-28T13:05:20.697Z,22.86
2022-10-28T13:08:34.828Z,22.97
2022-10-28T13:11:23.945Z,23.02
2022-10-28T13:14:31.546Z,23.19
2022-10-28T13:17:15.698Z,23.04
2022-10-28T13:20:13.200Z,22.85
2022-10-28T13:22:43.282Z,22.87
2022-10-28T13:25:27.693Z,22.90
2022-10-28T13:28:00.762Z,22.97
2022-10-28T13:30:58.170Z,22.94
2022-10-28T13:33:29.459Z,22.99
2022-10-28T13:36:17.661Z,22.93
2022-10-28T13:38:53.339Z,22.77
2022-10-28T13:41:34.811Z,22.71
2022-10-28T13:44:10.480Z,22.76
2022-10-28T13:46:58.848Z,22.85
2022-10-28T13:49:28.886Z,22.82
2022-10-28T13:52:06.973Z,22.93
2022-10-28T13:54:51.841Z,22.88
2022-10-28T13:57:37.247Z,22.90
2022-10-28T14:00:09.363Z,22.76
2022-10-28T14:02:40.990Z,22.87
2022-10-28T14:05:24.922Z,22.88
2022-10-28T14:08:00.484Z,22.77
2022-10-28T14:10:31.133Z,22.80
2022-10-28T14:13:03.252Z,22.85
2022-10-28T14:15:36.828Z,22.87
2022-10-28T14:21:07.369Z,22.93
2022-10-28T14:23:33.893Z,22.93
2022-10-28T14:26:04.924Z,22.85
2022-10-28T14:28:31.591Z,22.63
2022-10-28T14:31:14.422Z,22.70
2022-10-28T14:33:44.586Z,22.77
2022-10-28T14:36:14.211Z,22.70
2022-10-28T14:39:08.763Z,22.63
2022-10-28T14:42:04.210Z,22.55
2022-10-28T14:44:52.242Z,22.74
2022-10-28T14:47:54.459Z,22.60
2022-10-28T14:50:25.907Z,22.75
2022-10-28T14:52:53.996Z,22.55
2022-10-28T14:55:31.377Z,22.46
2022-10-28T14:58:16.925Z,22.45
2022-10-28T15:04:06.310Z,22.39
2022-10-28T15:06:41.663Z,22.22
2022-10-28T15:09:31.819Z,22.17
2022-10-28T15:12:08.010Z,22.16
2022-10-28T15:14:56.227Z,22.21
2022-10-28T15:17:26.439Z,22.16
2022-10-28T15:19:58.004Z,22.20
2022-10-28T15:22:31.245Z,22.21
2022-10-28T15:25:12.670Z,22.16
2022-10-28T15:27:41.387Z,22.03
2022-10-28T15:30:16.317Z,21.98
2022-10-28T15:32:42.988Z,22.28
2022-10-28T15:35:45.288Z,22.52
2022-10-28T15:38:29.809Z,22.16
2022-10-28T15:40:57.103Z,21.99
2022-10-28T15:43:28.506Z,21.94
2022-10-28T15:46:08.952Z,21.79
2022-10-28T15:48:35.710Z,21.76
2022-10-28T15:52:22.920Z,21.70
2022-10-28T15:54:56.638Z,21.47
2022-10-28T15:57:33.581Z,21.51
2022-10-28T16:00:23.159Z,21.38
2022-10-28T16:03:05.326Z,21.28
2022-10-28T16:05:32.150Z,21.35
2022-10-28T16:08:17.274Z,21.23
2022-10-28T16:10:49.614Z,21.25
2022-10-28T16:13:19.281Z,21.24
2022-10-28T16:15:51.273Z,21.35
2022-10-28T16:18:18.022Z,21.22
2022-10-28T16:20:45.459Z,21.26
2022-10-28T16:23:20.973Z,21.26
2022-10-28T16:25:48.741Z,21.12
2022-10-28T16:28:27.862Z,21.10
2022-10-28T16:31:05.431Z,21.02
2022-10-28T16:33:34.455Z,21.07
2022-10-28T16:36:02.675Z,21.07
2022-10-28T16:38:39.007Z,21.02
2022-10-28T16:41:17.275Z,21.06
2022-10-28T16:43:44.656Z,21.11
2022-10-28T16:46:23.692Z,21.00
2022-10-28T16:49:08.552Z,20.88
2022-10-28T16:51:35.388Z,20.90
2022-10-28T16:54:02.076Z,20.89
2022-10-28T16:56:29.091Z,20.85
2022-10-28T16:58:55.939Z,20.71
2022-10-28T17:01:22.843Z,20.67
2022-10-28T17:03:49.595Z,20.58
2022-10-28T17:06:18.754Z,20.60
2022-10-28T17:11:34.286Z,20.38
2022-10-28T17:14:01.296Z,20.35
2022-10-28T17:16:27.932Z,20.40
2022-10-28T17:18:54.707Z,20.34
2022-10-28T17:21:21.419Z,20.31
2022-10-28T17:23:48.080Z,20.35
2022-10-28T17:26:15.108Z,20.26
2022-10-28T17:28:41.731Z,20.36
2022-10-28T17:31:08.797Z,20.44
2022-10-28T17:33:35.555Z,20.27
2022-10-28T17:36:08.970Z,20.08
2022-10-28T17:38:35.873Z,20.03
2022-10-28T17:41:02.674Z,20.15
2022-10-28T17:43:29.335Z,20.28
2022-10-28T17:46:07.641Z,20.11
2022-10-28T17:48:34.476Z,20.11
2022-10-28T17:51:01.264Z,20.18
2022-10-28T17:53:27.899Z,20.20
2022-10-28T17:59:35.991Z,19.99
2022-10-28T18:02:03.143Z,19.83
2022-10-28T18:04:30.441Z,19.76
2022-10-28T18:06:57.942Z,19.72
2022-10-28T18:09:25.144Z,19.66
2022-10-28T18:11:51.933Z,19.68
2022-10-28T18:14:20.168Z,19.73
2022-10-28T18:16:46.891Z,19.70
2022-10-28T18:19:15.037Z,19.82
2022-10-28T18:21:48.481Z,19.81
2022-10-28T18:24:15.825Z,19.62
2022-10-28T18:26:42.493Z,19.43
2022-10-28T18:29:14.102Z,19.30
2022-10-28T18:31:43.857Z,19.20
2022-10-28T18:34:11.314Z,19.14
2022-10-28T18:36:38.082Z,19.24
2022-10-28T18:39:06.941Z,19.27
2022-10-28T18:41:41.473Z,19.31
2022-10-28T18:44:14.122Z,19.29
2022-10-28T18:46:41.233Z,19.25
2022-10-28T18:49:07.864Z,19.24
2022-10-28T18:51:34.807Z,19.16
2022-10-28T18:54:01.692Z,19.07
2022-10-28T18:56:32.039Z,19.08
2022-10-28T18:58:58.814Z,19.00
2022-10-28T19:01:29.918Z,18.89
2022-10-28T19:03:59.339Z,18.98
2022-10-28T19:06:32.683Z,18.99
2022-10-28T19:09:05.141Z,19.03
2022-10-28T19:11:33.248Z,18.86
2022-10-28T19:14:08.308Z,18.70
2022-10-28T19:16:35.595Z,18.81
2022-10-28T19:19:06.167Z,18.89
2022-10-28T19:21:41.012Z,18.85
2022-10-28T19:24:08.528Z,18.89
2022-10-28T19:26:35.662Z,19.02
2022-10-28T19:29:04.191Z,18.99
2022-10-28T19:31:35.827Z,19.09
2022-10-28T19:34:02.452Z,19.16
2022-10-28T19:36:30.151Z,19.18
2022-10-28T19:38:57.598Z,19.13
2022-10-28T19:41:28.579Z,19.03
2022-10-28T19:43:59.639Z,19.21
2022-10-28T19:46:31.940Z,19.00
2022-10-28T19:49:00.774Z,19.02
2022-10-28T19:51:30.929Z,19.08
2022-10-28T19:54:00.229Z,19.01
2022-10-28T19:56:31.432Z,19.03
2022-10-28T19:59:05.506Z,19.05
2022-10-28T20:01:35.174Z,19.02
2022-10-28T20:04:05.057Z,18.91
2022-10-28T20:06:36.628Z,18.85
2022-10-28T20:09:07.600Z,18.86
2022-10-28T20:11:40.070Z,18.93
2022-10-28T20:14:12.957Z,18.90
2022-10-28T20:16:43.224Z,18.76
2022-10-28T20:19:10.089Z,18.82
2022-10-28T20:21:44.090Z,18.81
2022-10-28T20:24:10.996Z,18.63
2022-10-28T20:26:38.644Z,18.64
2022-10-28T20:29:07.001Z,18.67
2022-10-28T20:31:34.329Z,18.66
2022-10-28T20:34:04.009Z,18.69
2022-10-28T20:36:39.090Z,18.60
2022-10-28T20:39:11.993Z,18.44
2022-10-28T20:41:43.502Z,18.42
2022-10-28T20:44:13.426Z,18.52
2022-10-28T20:46:40.625Z,18.55
2022-10-28T20:49:10.742Z,18.52
2022-10-28T20:51:37.497Z,18.49
2022-10-28T20:54:04.460Z,18.52
2022-10-28T20:56:32.948Z,18.37
2022-10-28T20:58:59.933Z,18.36
2022-10-28T21:01:29.386Z,18.41
2022-10-28T21:03:57.418Z,18.50
2022-10-28T21:06:24.285Z,18.44
2022-10-28T21:08:51.797Z,18.51
2022-10-28T21:11:18.363Z,18.39
2022-10-28T21:13:52.747Z,18.38
2022-10-28T21:16:19.854Z,18.39
2022-10-28T21:18:46.852Z,18.38
2022-10-28T21:21:13.694Z,18.41
2022-10-28T21:23:40.378Z,18.28
2022-10-28T21:26:08.063Z,18.38
2022-10-28T21:28:35.845Z,18.50
2022-10-28T21:31:08.007Z,18.54
2022-10-28T21:33:36.008Z,18.40
2022-10-28T21:36:05.883Z,18.54
2022-10-28T21:38:33.674Z,18.52
2022-10-28T21:41:03.213Z,18.51
2022-10-28T21:43:32.191Z,18.40
2022-10-28T21:45:58.918Z,18.29
2022-10-28T21:48:26.465Z,18.37
2022-10-28T21:50:54.632Z,18.43
2022-10-28T21:53:21.586Z,18.37
2022-10-28T21:55:50.000Z,18.47
2022-10-28T21:58:18.176Z,18.27
2022-10-28T22:00:45.011Z,18.09
2022-10-28T22:03:12.819Z,18.21
2022-10-28T22:05:39.482Z,18.20
2022-10-28T22:08:06.245Z,18.25
2022-10-28T22:10:32.866Z,18.14
2022-10-28T22:12:59.455Z,18.24
2022-10-28T22:15:26.072Z,18.15
2022-10-28T22:17:52.878Z,18.15
2022-10-28T22:20:19.739Z,18.10
2022-10-28T22:22:46.400Z,18.17
2022-10-28T22:25:13.039Z,18.17
2022-10-28T22:27:39.684Z,18.22
2022-10-28T22:30:06.736Z,18.23
2022-10-28T22:32:33.271Z,18.22
2022-10-28T22:34:59.965Z,18.22
2022-10-28T22:37:26.553Z,18.11
2022-10-28T22:39:53.156Z,18.13
2022-10-28T22:42:19.709Z,18.09
2022-10-28T22:44:46.305Z,18.12
2022-10-28T22:47:13.001Z,18.09
2022-10-28T22:49:39.589Z,18.13
2022-10-28T22:52:06.268Z,18.08
2022-10-28T22:54:32.839Z,18.04
2022-10-28T22:56:59.520Z,18.00
2022-10-28T22:59:26.119Z,18.02
2022-10-28T23:01:52.789Z,17.89
2022-10-28T23:04:19.893Z,17.86
2022-10-28T23:06:46.885Z,17.78
2022-10-28T23:09:13.467Z,17.81
2022-10-28T23:11:40.020Z,17.76
2022-10-28T23:14:06.694Z,17.69
2022-10-28T23:16:33.275Z,17.56
2022-10-28T23:19:03.096Z,17.56
2022-10-28T23:21:29.696Z,17.45
2022-10-28T23:23:58.266Z,17.52
2022-10-28T23:26:28.027Z,17.59
2022-10-28T23:28:57.892Z,17.56
2022-10-28T23:31:24.498Z,17.90
2022-10-28T23:33:52.936Z,17.80
2022-10-28T23:36:19.482Z,17.72
2022-10-28T23:38:46.251Z,17.80
2022-10-28T23:41:16.078Z,17.82
2022-10-28T23:43:42.863Z,17.88
2022-10-28T23:46:09.829Z,17.81
2022-10-28T23:48:36.393Z,17.87
2022-10-28T23:51:03.131Z,18.04
2022-10-28T23:53:30.650Z,18.08
2022-10-28T23:55:57.764Z,18.03
2022-10-28T23:58:24.536Z,18.03
